sensor_id;sensor_type;location;lat;lon;timestamp;P1;durP1;ratioP1;P2;durP2;ratioP2
80366;SDS011;70058;42.660;23.366;2024-01-15T00:01:33;0.40;;;0.40;;
80366;SDS011;70058;42.660;23.366;2024-01-15T00:03:59;0.40;;;0.40;;
80366;SDS011;70058;42.660;23.366;2024-01-15T00:06:25;0.40;;;0.40;;
80366;SDS011;70058;42.660;23.366;2024-01-15T00:08:53;0.40;;;0.40;;
80366;SDS011;70058;42.660;23.366;2024-01-15T00:11:19;0.40;;;0.40;;
80366;SDS011;70058;42.660;23.366;2024-01-15T00:13:45;0.40;;;0.40;;
80366;SDS011;70058;42.660;23.366;2024-01-15T00:16:10;0.40;;;0.40;;
80366;SDS011;70058;42.660;23.366;2024-01-15T00:18:37;0.40;;;0.40;;
80366;SDS011;70058;42.660;23.366;2024-01-15T00:21:02;0.40;;;0.40;;
80366;SDS011;70058;42.660;23.366;2024-01-15T00:23:28;0.40;;;0.40;;
80366;SDS011;70058;42.660;23.366;2024-01-15T00:25:54;0.40;;;0.40;;
80366;SDS011;70058;42.660;23.366;2024-01-15T00:28:19;0.40;;;0.40;;
80366;SDS011;70058;42.660;23.366;2024-01-15T00:30:45;0.40;;;0.40;;
80366;SDS011;70058;42.660;23.366;2024-01-15T00:33:11;0.40;;;0.40;;
80366;SDS011;70058;42.660;23.366;2024-01-15T00:35:37;0.40;;;0.40;;
80366;SDS011;70058;42.660;23.366;2024-01-15T00:38:03;0.40;;;0.40;;
80366;SDS011;70058;42.660;23.366;2024-01-15T00:40:28;0.40;;;0.40;;
80366;SDS011;70058;42.660;23.366;2024-01-15T00:42:54;0.40;;;0.40;;
80366;SDS011;70058;42.660;23.366;2024-01-15T00:45:20;0.40;;;0.40;;
80366;SDS011;70058;42.660;23.366;2024-01-15T00:47:45;0.40;;;0.40;;
80366;SDS011;70058;42.660;23.366;2024-01-15T00:50:11;0.40;;;0.40;;
80366;SDS011;70058;42.660;23.366;2024-01-15T00:52:37;0.40;;;0.40;;
80366;SDS011;70058;42.660;23.366;2024-01-15T00:55:03;0.43;;;0.43;;
80366;SDS011;70058;42.660;23.366;2024-01-15T00:57:29;0.40;;;0.40;;
80366;SDS011;70058;42.660;23.366;2024-01-15T00:59:54;0.40;;;0.40;;
80366;SDS011;70058;42.660;23.366;2024-01-15T01:02:20;0.40;;;0.40;;
80366;SDS011;70058;42.660;23.366;2024-01-15T01:04:46;0.40;;;0.40;;
80366;SDS011;70058;42.660;23.366;2024-01-15T01:07:11;0.40;;;0.40;;
80366;SDS011;70058;42.660;23.366;2024-01-15T01:09:37;0.50;;;0.50;;
80366;SDS011;70058;42.660;23.366;2024-01-15T01:12:03;0.40;;;0.40;;
80366;SDS011;70058;42.660;23.366;2024-01-15T01:14:28;0.40;;;0.40;;
80366;SDS011;70058;42.660;23.366;2024-01-15T01:16:54;0.40;;;0.40;;
80366;SDS011;70058;42.660;23.366;2024-01-15T01:19:20;0.40;;;0.40;;
80366;SDS011;70058;42.660;23.366;2024-01-15T01:21:45;0.40;;;0.40;;
80366;SDS011;70058;42.660;23.366;2024-01-15T01:24:11;0.40;;;0.40;;
80366;SDS011;70058;42.660;23.366;2024-01-15T01:26:36;0.40;;;0.40;;
80366;SDS011;70058;42.660;23.366;2024-01-15T01:29:02;0.40;;;0.40;;
80366;SDS011;70058;42.660;23.366;2024-01-15T01:31:28;0.43;;;0.43;;
80366;SDS011;70058;42.660;23.366;2024-01-15T01:33:53;0.40;;;0.40;;
80366;SDS011;70058;42.660;23.366;2024-01-15T01:36:19;0.40;;;0.40;;
80366;SDS011;70058;42.660;23.366;2024-01-15T01:38:45;0.40;;;0.40;;
80366;SDS011;70058;42.660;23.366;2024-01-15T01:41:10;0.40;;;0.40;;
80366;SDS011;70058;42.660;23.366;2024-01-15T01:43:36;0.45;;;0.45;;
80366;SDS011;70058;42.660;23.366;2024-01-15T01:46:02;0.40;;;0.40;;
80366;SDS011;70058;42.660;23.366;2024-01-15T01:48:28;0.40;;;0.40;;
80366;SDS011;70058;42.660;23.366;2024-01-15T01:50:57;0.40;;;0.40;;
80366;SDS011;70058;42.660;23.366;2024-01-15T01:53:24;0.40;;;0.40;;
80366;SDS011;70058;42.660;23.366;2024-01-15T01:55:52;0.50;;;0.50;;
80366;SDS011;70058;42.660;23.366;2024-01-15T01:58:19;0.40;;;0.40;;
80366;SDS011;70058;42.660;23.366;2024-01-15T02:00:45;0.40;;;0.40;;
80366;SDS011;70058;42.660;23.366;2024-01-15T02:03:12;0.40;;;0.40;;
80366;SDS011;70058;42.660;23.366;2024-01-15T02:05:39;0.40;;;0.40;;
80366;SDS011;70058;42.660;23.366;2024-01-15T02:08:05;0.40;;;0.40;;
80366;SDS011;70058;42.660;23.366;2024-01-15T02:10:31;0.40;;;0.40;;
80366;SDS011;70058;42.660;23.366;2024-01-15T02:12:57;0.40;;;0.40;;
80366;SDS011;70058;42.660;23.366;2024-01-15T02:15:23;0.40;;;0.40;;
80366;SDS011;70058;42.660;23.366;2024-01-15T02:18:02;0.40;;;0.40;;
80366;SDS011;70058;42.660;23.366;2024-01-15T02:20:30;0.40;;;0.40;;
80366;SDS011;70058;42.660;23.366;2024-01-15T02:23:05;0.45;;;0.45;;
80366;SDS011;70058;42.660;23.366;2024-01-15T02:25:40;0.40;;;0.40;;
80366;SDS011;70058;42.660;23.366;2024-01-15T02:28:10;0.40;;;0.40;;
80366;SDS011;70058;42.660;23.366;2024-01-15T02:30:37;0.50;;;0.50;;
80366;SDS011;70058;42.660;23.366;2024-01-15T02:33:04;0.50;;;0.50;;
80366;SDS011;70058;42.660;23.366;2024-01-15T02:35:31;0.40;;;0.40;;
80366;SDS011;70058;42.660;23.366;2024-01-15T02:37:56;0.63;;;0.50;;
80366;SDS011;70058;42.660;23.366;2024-01-15T02:40:22;0.40;;;0.40;;
80366;SDS011;70058;42.660;23.366;2024-01-15T02:42:48;0.40;;;0.40;;
80366;SDS011;70058;42.660;23.366;2024-01-15T02:45:13;0.40;;;0.40;;
80366;SDS011;70058;42.660;23.366;2024-01-15T02:47:39;0.50;;;0.50;;
80366;SDS011;70058;42.660;23.366;2024-01-15T02:50:05;0.50;;;0.50;;
80366;SDS011;70058;42.660;23.366;2024-01-15T02:52:31;0.40;;;0.40;;
80366;SDS011;70058;42.660;23.366;2024-01-15T02:54:56;0.40;;;0.40;;
80366;SDS011;70058;42.660;23.366;2024-01-15T02:57:22;0.40;;;0.40;;
80366;SDS011;70058;42.660;23.366;2024-01-15T02:59:47;0.40;;;0.40;;
80366;SDS011;70058;42.660;23.366;2024-01-15T03:02:13;0.40;;;0.40;;
80366;SDS011;70058;42.660;23.366;2024-01-15T03:04:42;0.40;;;0.40;;
80366;SDS011;70058;42.660;23.366;2024-01-15T03:07:09;0.40;;;0.40;;
80366;SDS011;70058;42.660;23.366;2024-01-15T03:09:34;0.40;;;0.40;;
80366;SDS011;70058;42.660;23.366;2024-01-15T03:12:00;0.40;;;0.40;;
80366;SDS011;70058;42.660;23.366;2024-01-15T03:14:26;0.50;;;0.50;;
80366;SDS011;70058;42.660;23.366;2024-01-15T03:16:52;0.40;;;0.40;;
80366;SDS011;70058;42.660;23.366;2024-01-15T03:19:18;0.40;;;0.40;;
80366;SDS011;70058;42.660;23.366;2024-01-15T03:21:44;0.40;;;0.40;;
80366;SDS011;70058;42.660;23.366;2024-01-15T03:24:10;0.40;;;0.40;;
80366;SDS011;70058;42.660;23.366;2024-01-15T03:26:35;0.40;;;0.40;;
80366;SDS011;70058;42.660;23.366;2024-01-15T03:29:01;0.40;;;0.40;;
80366;SDS011;70058;42.660;23.366;2024-01-15T03:31:27;0.40;;;0.40;;
80366;SDS011;70058;42.660;23.366;2024-01-15T03:33:53;0.40;;;0.40;;
80366;SDS011;70058;42.660;23.366;2024-01-15T03:36:18;0.40;;;0.40;;
80366;SDS011;70058;42.660;23.366;2024-01-15T03:38:44;0.40;;;0.40;;
80366;SDS011;70058;42.660;23.366;2024-01-15T03:41:09;0.40;;;0.40;;
80366;SDS011;70058;42.660;23.366;2024-01-15T03:43:35;0.40;;;0.40;;
80366;SDS011;70058;42.660;23.366;2024-01-15T03:46:01;0.40;;;0.40;;
80366;SDS011;70058;42.660;23.366;2024-01-15T03:48:27;0.40;;;0.40;;
80366;SDS011;70058;42.660;23.366;2024-01-15T03:50:53;0.40;;;0.40;;
80366;SDS011;70058;42.660;23.366;2024-01-15T03:53:18;0.40;;;0.40;;
80366;SDS011;70058;42.660;23.366;2024-01-15T03:55:44;0.40;;;0.40;;
80366;SDS011;70058;42.660;23.366;2024-01-15T03:58:10;0.40;;;0.40;;
80366;SDS011;70058;42.660;23.366;2024-01-15T04:00:36;0.40;;;0.40;;
80366;SDS011;70058;42.660;23.366;2024-01-15T04:03:01;0.35;;;0.35;;
80366;SDS011;70058;42.660;23.366;2024-01-15T04:05:27;0.40;;;0.40;;
80366;SDS011;70058;42.660;23.366;2024-01-15T04:07:53;0.40;;;0.40;;
80366;SDS011;70058;42.660;23.366;2024-01-15T04:10:18;0.47;;;0.47;;
80366;SDS011;70058;42.660;23.366;2024-01-15T04:12:44;0.40;;;0.40;;
80366;SDS011;70058;42.660;23.366;2024-01-15T04:15:12;0.40;;;0.40;;
80366;SDS011;70058;42.660;23.366;2024-01-15T04:17:38;0.40;;;0.40;;
80366;SDS011;70058;42.660;23.366;2024-01-15T04:20:04;0.40;;;0.40;;
80366;SDS011;70058;42.660;23.366;2024-01-15T04:22:31;0.40;;;0.40;;
80366;SDS011;70058;42.660;23.366;2024-01-15T04:24:58;0.40;;;0.40;;
80366;SDS011;70058;42.660;23.366;2024-01-15T04:27:24;0.40;;;0.40;;
80366;SDS011;70058;42.660;23.366;2024-01-15T04:29:49;0.40;;;0.40;;
80366;SDS011;70058;42.660;23.366;2024-01-15T04:32:15;0.40;;;0.40;;
80366;SDS011;70058;42.660;23.366;2024-01-15T04:34:41;0.40;;;0.40;;
80366;SDS011;70058;42.660;23.366;2024-01-15T04:37:06;0.40;;;0.40;;
80366;SDS011;70058;42.660;23.366;2024-01-15T04:39:32;0.40;;;0.40;;
80366;SDS011;70058;42.660;23.366;2024-01-15T04:41:58;0.40;;;0.40;;
80366;SDS011;70058;42.660;23.366;2024-01-15T04:44:23;0.40;;;0.40;;
80366;SDS011;70058;42.660;23.366;2024-01-15T04:46:49;0.40;;;0.40;;
80366;SDS011;70058;42.660;23.366;2024-01-15T04:49:15;0.40;;;0.40;;
80366;SDS011;70058;42.660;23.366;2024-01-15T04:51:40;0.40;;;0.40;;
80366;SDS011;70058;42.660;23.366;2024-01-15T04:54:06;0.40;;;0.40;;
80366;SDS011;70058;42.660;23.366;2024-01-15T04:56:32;0.40;;;0.40;;
80366;SDS011;70058;42.660;23.366;2024-01-15T04:58:57;0.40;;;0.40;;
80366;SDS011;70058;42.660;23.366;2024-01-15T05:01:23;0.40;;;0.40;;
80366;SDS011;70058;42.660;23.366;2024-01-15T05:03:49;0.40;;;0.40;;
80366;SDS011;70058;42.660;23.366;2024-01-15T05:06:14;0.40;;;0.40;;
80366;SDS011;70058;42.660;23.366;2024-01-15T05:08:40;0.40;;;0.40;;
80366;SDS011;70058;42.660;23.366;2024-01-15T05:11:06;0.40;;;0.40;;
80366;SDS011;70058;42.660;23.366;2024-01-15T05:13:32;0.40;;;0.40;;
80366;SDS011;70058;42.660;23.366;2024-01-15T05:15:57;0.40;;;0.40;;
80366;SDS011;70058;42.660;23.366;2024-01-15T05:18:23;0.40;;;0.40;;
80366;SDS011;70058;42.660;23.366;2024-01-15T05:20:49;0.40;;;0.40;;
80366;SDS011;70058;42.660;23.366;2024-01-15T05:23:15;0.40;;;0.40;;
80366;SDS011;70058;42.660;23.366;2024-01-15T05:25:40;0.40;;;0.40;;
80366;SDS011;70058;42.660;23.366;2024-01-15T05:28:06;0.40;;;0.40;;
80366;SDS011;70058;42.660;23.366;2024-01-15T05:30:32;0.40;;;0.40;;
80366;SDS011;70058;42.660;23.366;2024-01-15T05:32:57;0.40;;;0.40;;
80366;SDS011;70058;42.660;23.366;2024-01-15T05:35:25;0.40;;;0.40;;
80366;SDS011;70058;42.660;23.366;2024-01-15T05:37:50;0.40;;;0.40;;
80366;SDS011;70058;42.660;23.366;2024-01-15T05:40:16;0.40;;;0.40;;
80366;SDS011;70058;42.660;23.366;2024-01-15T05:42:42;0.40;;;0.40;;
80366;SDS011;70058;42.660;23.366;2024-01-15T05:45:08;0.40;;;0.40;;
80366;SDS011;70058;42.660;23.366;2024-01-15T05:47:34;0.40;;;0.40;;
80366;SDS011;70058;42.660;23.366;2024-01-15T05:50:00;0.40;;;0.40;;
80366;SDS011;70058;42.660;23.366;2024-01-15T05:52:26;0.40;;;0.40;;
80366;SDS011;70058;42.660;23.366;2024-01-15T05:54:52;0.40;;;0.40;;
80366;SDS011;70058;42.660;23.366;2024-01-15T05:57:18;0.40;;;0.40;;
80366;SDS011;70058;42.660;23.366;2024-01-15T05:59:44;0.40;;;0.40;;
80366;SDS011;70058;42.660;23.366;2024-01-15T06:02:10;0.40;;;0.40;;
80366;SDS011;70058;42.660;23.366;2024-01-15T06:04:36;0.40;;;0.40;;
80366;SDS011;70058;42.660;23.366;2024-01-15T06:07:02;0.43;;;0.43;;
80366;SDS011;70058;42.660;23.366;2024-01-15T06:09:28;0.40;;;0.40;;
80366;SDS011;70058;42.660;23.366;2024-01-15T06:11:54;0.40;;;0.40;;
80366;SDS011;70058;42.660;23.366;2024-01-15T06:14:20;0.43;;;0.43;;
80366;SDS011;70058;42.660;23.366;2024-01-15T06:16:46;0.40;;;0.40;;
80366;SDS011;70058;42.660;23.366;2024-01-15T06:19:11;0.40;;;0.40;;
80366;SDS011;70058;42.660;23.366;2024-01-15T06:21:37;0.40;;;0.40;;
80366;SDS011;70058;42.660;23.366;2024-01-15T06:24:03;0.40;;;0.40;;
80366;SDS011;70058;42.660;23.366;2024-01-15T06:26:29;0.40;;;0.40;;
80366;SDS011;70058;42.660;23.366;2024-01-15T06:28:54;0.40;;;0.40;;
80366;SDS011;70058;42.660;23.366;2024-01-15T06:31:23;0.40;;;0.40;;
80366;SDS011;70058;42.660;23.366;2024-01-15T06:33:49;0.40;;;0.40;;
80366;SDS011;70058;42.660;23.366;2024-01-15T06:36:14;0.40;;;0.40;;
80366;SDS011;70058;42.660;23.366;2024-01-15T06:38:43;0.40;;;0.40;;
80366;SDS011;70058;42.660;23.366;2024-01-15T06:41:09;0.40;;;0.40;;
80366;SDS011;70058;42.660;23.366;2024-01-15T06:43:35;0.40;;;0.40;;
80366;SDS011;70058;42.660;23.366;2024-01-15T06:46:01;0.40;;;0.40;;
80366;SDS011;70058;42.660;23.366;2024-01-15T06:48:26;0.40;;;0.40;;
80366;SDS011;70058;42.660;23.366;2024-01-15T06:50:52;0.40;;;0.40;;
80366;SDS011;70058;42.660;23.366;2024-01-15T06:53:18;0.40;;;0.40;;
80366;SDS011;70058;42.660;23.366;2024-01-15T06:55:44;0.40;;;0.40;;
80366;SDS011;70058;42.660;23.366;2024-01-15T06:58:09;0.40;;;0.40;;
80366;SDS011;70058;42.660;23.366;2024-01-15T07:00:35;0.40;;;0.40;;
80366;SDS011;70058;42.660;23.366;2024-01-15T07:03:01;0.40;;;0.40;;
80366;SDS011;70058;42.660;23.366;2024-01-15T07:05:27;0.40;;;0.40;;
80366;SDS011;70058;42.660;23.366;2024-01-15T07:07:54;0.40;;;0.40;;
80366;SDS011;70058;42.660;23.366;2024-01-15T07:10:20;0.40;;;0.40;;
80366;SDS011;70058;42.660;23.366;2024-01-15T07:12:46;0.30;;;0.30;;
80366;SDS011;70058;42.660;23.366;2024-01-15T07:15:12;0.40;;;0.40;;
80366;SDS011;70058;42.660;23.366;2024-01-15T07:17:37;0.30;;;0.30;;
80366;SDS011;70058;42.660;23.366;2024-01-15T07:20:05;0.30;;;0.30;;
80366;SDS011;70058;42.660;23.366;2024-01-15T07:22:33;0.40;;;0.40;;
80366;SDS011;70058;42.660;23.366;2024-01-15T07:24:59;0.30;;;0.30;;
80366;SDS011;70058;42.660;23.366;2024-01-15T07:27:29;0.40;;;0.40;;
80366;SDS011;70058;42.660;23.366;2024-01-15T07:29:56;0.40;;;0.40;;
80366;SDS011;70058;42.660;23.366;2024-01-15T07:32:23;0.40;;;0.40;;
80366;SDS011;70058;42.660;23.366;2024-01-15T07:34:48;0.40;;;0.40;;
80366;SDS011;70058;42.660;23.366;2024-01-15T07:37:14;0.30;;;0.30;;
80366;SDS011;70058;42.660;23.366;2024-01-15T07:39:40;0.40;;;0.40;;
80366;SDS011;70058;42.660;23.366;2024-01-15T07:42:06;0.35;;;0.35;;
80366;SDS011;70058;42.660;23.366;2024-01-15T07:44:32;0.30;;;0.30;;
80366;SDS011;70058;42.660;23.366;2024-01-15T07:46:58;0.30;;;0.30;;
80366;SDS011;70058;42.660;23.366;2024-01-15T07:49:24;0.30;;;0.30;;
80366;SDS011;70058;42.660;23.366;2024-01-15T07:51:50;0.30;;;0.30;;
80366;SDS011;70058;42.660;23.366;2024-01-15T07:54:15;0.40;;;0.40;;
80366;SDS011;70058;42.660;23.366;2024-01-15T07:56:56;0.40;;;0.40;;
80366;SDS011;70058;42.660;23.366;2024-01-15T07:59:24;0.40;;;0.40;;
80366;SDS011;70058;42.660;23.366;2024-01-15T08:01:51;0.30;;;0.30;;
80366;SDS011;70058;42.660;23.366;2024-01-15T08:04:17;0.30;;;0.30;;
80366;SDS011;70058;42.660;23.366;2024-01-15T08:06:43;0.30;;;0.30;;
80366;SDS011;70058;42.660;23.366;2024-01-15T08:09:08;0.32;;;0.32;;
80366;SDS011;70058;42.660;23.366;2024-01-15T08:11:34;0.30;;;0.30;;
80366;SDS011;70058;42.660;23.366;2024-01-15T08:14:00;0.30;;;0.30;;
80366;SDS011;70058;42.660;23.366;2024-01-15T08:16:26;0.30;;;0.30;;
80366;SDS011;70058;42.660;23.366;2024-01-15T08:18:52;0.40;;;0.40;;
80366;SDS011;70058;42.660;23.366;2024-01-15T08:21:18;0.30;;;0.30;;
80366;SDS011;70058;42.660;23.366;2024-01-15T08:23:44;0.30;;;0.30;;
80366;SDS011;70058;42.660;23.366;2024-01-15T08:26:10;0.30;;;0.30;;
80366;SDS011;70058;42.660;23.366;2024-01-15T08:28:36;0.30;;;0.30;;
80366;SDS011;70058;42.660;23.366;2024-01-15T08:31:01;0.30;;;0.30;;
80366;SDS011;70058;42.660;23.366;2024-01-15T08:33:28;0.30;;;0.30;;
80366;SDS011;70058;42.660;23.366;2024-01-15T08:35:53;0.30;;;0.30;;
80366;SDS011;70058;42.660;23.366;2024-01-15T08:38:19;0.30;;;0.30;;
80366;SDS011;70058;42.660;23.366;2024-01-15T08:40:45;0.30;;;0.30;;
80366;SDS011;70058;42.660;23.366;2024-01-15T08:43:11;0.30;;;0.30;;
80366;SDS011;70058;42.660;23.366;2024-01-15T08:45:38;0.30;;;0.30;;
80366;SDS011;70058;42.660;23.366;2024-01-15T08:48:04;0.30;;;0.30;;
80366;SDS011;70058;42.660;23.366;2024-01-15T08:50:30;0.30;;;0.30;;
80366;SDS011;70058;42.660;23.366;2024-01-15T08:52:57;0.30;;;0.30;;
80366;SDS011;70058;42.660;23.366;2024-01-15T08:55:23;0.30;;;0.30;;
80366;SDS011;70058;42.660;23.366;2024-01-15T08:57:49;0.30;;;0.30;;
80366;SDS011;70058;42.660;23.366;2024-01-15T09:00:15;0.30;;;0.30;;
80366;SDS011;70058;42.660;23.366;2024-01-15T09:02:42;0.30;;;0.30;;
80366;SDS011;70058;42.660;23.366;2024-01-15T09:05:09;0.30;;;0.30;;
80366;SDS011;70058;42.660;23.366;2024-01-15T09:07:34;0.30;;;0.30;;
80366;SDS011;70058;42.660;23.366;2024-01-15T09:10:00;0.32;;;0.32;;
80366;SDS011;70058;42.660;23.366;2024-01-15T09:12:27;0.30;;;0.30;;
80366;SDS011;70058;42.660;23.366;2024-01-15T09:14:53;0.30;;;0.30;;
80366;SDS011;70058;42.660;23.366;2024-01-15T09:17:19;0.30;;;0.30;;
80366;SDS011;70058;42.660;23.366;2024-01-15T09:19:45;0.30;;;0.30;;
80366;SDS011;70058;42.660;23.366;2024-01-15T09:22:12;0.30;;;0.30;;
80366;SDS011;70058;42.660;23.366;2024-01-15T09:24:42;0.30;;;0.30;;
80366;SDS011;70058;42.660;23.366;2024-01-15T09:27:08;0.30;;;0.30;;
80366;SDS011;70058;42.660;23.366;2024-01-15T09:29:33;0.30;;;0.30;;
80366;SDS011;70058;42.660;23.366;2024-01-15T09:32:01;0.30;;;0.30;;
80366;SDS011;70058;42.660;23.366;2024-01-15T09:34:29;0.30;;;0.30;;
80366;SDS011;70058;42.660;23.366;2024-01-15T09:36:54;0.30;;;0.30;;
80366;SDS011;70058;42.660;23.366;2024-01-15T09:39:20;0.30;;;0.30;;
80366;SDS011;70058;42.660;23.366;2024-01-15T09:41:48;0.30;;;0.30;;
80366;SDS011;70058;42.660;23.366;2024-01-15T09:44:14;0.30;;;0.30;;
80366;SDS011;70058;42.660;23.366;2024-01-15T09:46:41;0.30;;;0.30;;
80366;SDS011;70058;42.660;23.366;2024-01-15T09:49:09;0.30;;;0.30;;
80366;SDS011;70058;42.660;23.366;2024-01-15T09:51:35;0.30;;;0.30;;
80366;SDS011;70058;42.660;23.366;2024-01-15T09:54:02;0.30;;;0.30;;
80366;SDS011;70058;42.660;23.366;2024-01-15T09:56:29;0.30;;;0.30;;
80366;SDS011;70058;42.660;23.366;2024-01-15T09:58:56;0.30;;;0.30;;
80366;SDS011;70058;42.660;23.366;2024-01-15T10:01:22;0.32;;;0.32;;
80366;SDS011;70058;42.660;23.366;2024-01-15T10:03:49;0.30;;;0.30;;
80366;SDS011;70058;42.660;23.366;2024-01-15T10:06:16;0.30;;;0.30;;
80366;SDS011;70058;42.660;23.366;2024-01-15T10:08:43;0.30;;;0.30;;
80366;SDS011;70058;42.660;23.366;2024-01-15T10:11:13;0.30;;;0.30;;
80366;SDS011;70058;42.660;23.366;2024-01-15T10:13:39;0.30;;;0.30;;
80366;SDS011;70058;42.660;23.366;2024-01-15T10:16:05;0.30;;;0.30;;
80366;SDS011;70058;42.660;23.366;2024-01-15T10:18:31;0.30;;;0.30;;
80366;SDS011;70058;42.660;23.366;2024-01-15T10:20:57;0.40;;;0.40;;
80366;SDS011;70058;42.660;23.366;2024-01-15T10:23:24;0.32;;;0.32;;
80366;SDS011;70058;42.660;23.366;2024-01-15T10:25:50;0.30;;;0.30;;
80366;SDS011;70058;42.660;23.366;2024-01-15T10:28:16;0.30;;;0.30;;
80366;SDS011;70058;42.660;23.366;2024-01-15T10:30:44;0.30;;;0.30;;
80366;SDS011;70058;42.660;23.366;2024-01-15T10:33:10;0.30;;;0.30;;
80366;SDS011;70058;42.660;23.366;2024-01-15T10:35:37;0.30;;;0.30;;
80366;SDS011;70058;42.660;23.366;2024-01-15T10:38:03;0.30;;;0.30;;
80366;SDS011;70058;42.660;23.366;2024-01-15T10:40:31;0.30;;;0.30;;
80366;SDS011;70058;42.660;23.366;2024-01-15T10:43:00;0.25;;;0.25;;
80366;SDS011;70058;42.660;23.366;2024-01-15T10:45:25;0.30;;;0.30;;
80366;SDS011;70058;42.660;23.366;2024-01-15T10:47:51;0.30;;;0.30;;
80366;SDS011;70058;42.660;23.366;2024-01-15T10:50:18;0.30;;;0.30;;
80366;SDS011;70058;42.660;23.366;2024-01-15T10:52:44;0.30;;;0.30;;
80366;SDS011;70058;42.660;23.366;2024-01-15T10:55:10;0.30;;;0.30;;
80366;SDS011;70058;42.660;23.366;2024-01-15T10:57:37;0.30;;;0.30;;
80366;SDS011;70058;42.660;23.366;2024-01-15T11:00:04;0.30;;;0.30;;
80366;SDS011;70058;42.660;23.366;2024-01-15T11:02:34;0.30;;;0.30;;
80366;SDS011;70058;42.660;23.366;2024-01-15T11:05:01;0.30;;;0.30;;
80366;SDS011;70058;42.660;23.366;2024-01-15T11:07:26;0.30;;;0.30;;
80366;SDS011;70058;42.660;23.366;2024-01-15T11:09:54;0.30;;;0.30;;
80366;SDS011;70058;42.660;23.366;2024-01-15T11:12:20;0.30;;;0.30;;
80366;SDS011;70058;42.660;23.366;2024-01-15T11:14:47;0.30;;;0.30;;
80366;SDS011;70058;42.660;23.366;2024-01-15T11:17:14;0.20;;;0.20;;
80366;SDS011;70058;42.660;23.366;2024-01-15T11:19:48;0.20;;;0.20;;
80366;SDS011;70058;42.660;23.366;2024-01-15T11:25:03;0.20;;;0.20;;
80366;SDS011;70058;42.660;23.366;2024-01-15T11:27:48;0.22;;;0.22;;
80366;SDS011;70058;42.660;23.366;2024-01-15T11:30:18;0.30;;;0.30;;
80366;SDS011;70058;42.660;23.366;2024-01-15T11:32:45;0.20;;;0.20;;
80366;SDS011;70058;42.660;23.366;2024-01-15T11:35:11;0.20;;;0.20;;
80366;SDS011;70058;42.660;23.366;2024-01-15T11:40:23;0.20;;;0.20;;
80366;SDS011;70058;42.660;23.366;2024-01-15T11:43:02;0.22;;;0.22;;
80366;SDS011;70058;42.660;23.366;2024-01-15T11:45:28;0.20;;;0.20;;
80366;SDS011;70058;42.660;23.366;2024-01-15T11:48:12;0.20;;;0.20;;
80366;SDS011;70058;42.660;23.366;2024-01-15T11:53:32;0.20;;;0.20;;
80366;SDS011;70058;42.660;23.366;2024-01-15T11:55:57;0.20;;;0.20;;
80366;SDS011;70058;42.660;23.366;2024-01-15T11:58:25;0.30;;;0.30;;
80366;SDS011;70058;42.660;23.366;2024-01-15T12:00:51;0.20;;;0.20;;
80366;SDS011;70058;42.660;23.366;2024-01-15T12:03:20;0.20;;;0.20;;
80366;SDS011;70058;42.660;23.366;2024-01-15T12:05:47;0.20;;;0.20;;
80366;SDS011;70058;42.660;23.366;2024-01-15T12:08:13;0.30;;;0.30;;
80366;SDS011;70058;42.660;23.366;2024-01-15T12:10:39;0.30;;;0.30;;
80366;SDS011;70058;42.660;23.366;2024-01-15T12:13:15;0.20;;;0.20;;
80366;SDS011;70058;42.660;23.366;2024-01-15T12:15:43;0.20;;;0.20;;
80366;SDS011;70058;42.660;23.366;2024-01-15T12:18:11;0.30;;;0.30;;
80366;SDS011;70058;42.660;23.366;2024-01-15T12:20:39;0.20;;;0.20;;
80366;SDS011;70058;42.660;23.366;2024-01-15T12:23:06;0.20;;;0.20;;
80366;SDS011;70058;42.660;23.366;2024-01-15T12:25:32;0.20;;;0.20;;
80366;SDS011;70058;42.660;23.366;2024-01-15T12:27:58;0.20;;;0.20;;
80366;SDS011;70058;42.660;23.366;2024-01-15T12:30:28;0.30;;;0.20;;
80366;SDS011;70058;42.660;23.366;2024-01-15T12:32:56;0.20;;;0.20;;
80366;SDS011;70058;42.660;23.366;2024-01-15T12:35:23;0.20;;;0.20;;
80366;SDS011;70058;42.660;23.366;2024-01-15T12:37:51;0.20;;;0.20;;
80366;SDS011;70058;42.660;23.366;2024-01-15T12:40:20;0.20;;;0.20;;
80366;SDS011;70058;42.660;23.366;2024-01-15T12:42:47;0.28;;;0.28;;
80366;SDS011;70058;42.660;23.366;2024-01-15T12:45:13;0.20;;;0.20;;
80366;SDS011;70058;42.660;23.366;2024-01-15T12:47:39;0.20;;;0.20;;
80366;SDS011;70058;42.660;23.366;2024-01-15T12:50:09;0.20;;;0.20;;
80366;SDS011;70058;42.660;23.366;2024-01-15T12:52:37;0.20;;;0.20;;
80366;SDS011;70058;42.660;23.366;2024-01-15T12:55:05;0.20;;;0.20;;
80366;SDS011;70058;42.660;23.366;2024-01-15T12:57:32;0.22;;;0.22;;
80366;SDS011;70058;42.660;23.366;2024-01-15T12:59:59;0.20;;;0.20;;
80366;SDS011;70058;42.660;23.366;2024-01-15T13:02:24;0.28;;;0.28;;
80366;SDS011;70058;42.660;23.366;2024-01-15T13:04:50;0.20;;;0.20;;
80366;SDS011;70058;42.660;23.366;2024-01-15T13:07:16;0.20;;;0.20;;
80366;SDS011;70058;42.660;23.366;2024-01-15T13:09:42;0.20;;;0.20;;
80366;SDS011;70058;42.660;23.366;2024-01-15T13:12:08;0.22;;;0.22;;
80366;SDS011;70058;42.660;23.366;2024-01-15T13:14:34;0.20;;;0.20;;
80366;SDS011;70058;42.660;23.366;2024-01-15T13:17:00;0.20;;;0.20;;
80366;SDS011;70058;42.660;23.366;2024-01-15T13:19:26;0.30;;;0.30;;
80366;SDS011;70058;42.660;23.366;2024-01-15T13:21:52;0.22;;;0.22;;
80366;SDS011;70058;42.660;23.366;2024-01-15T13:24:19;0.20;;;0.20;;
80366;SDS011;70058;42.660;23.366;2024-01-15T13:26:45;0.20;;;0.20;;
80366;SDS011;70058;42.660;23.366;2024-01-15T13:29:11;0.20;;;0.20;;
80366;SDS011;70058;42.660;23.366;2024-01-15T13:31:36;0.30;;;0.30;;
80366;SDS011;70058;42.660;23.366;2024-01-15T13:34:03;0.20;;;0.20;;
80366;SDS011;70058;42.660;23.366;2024-01-15T13:36:28;0.30;;;0.30;;
80366;SDS011;70058;42.660;23.366;2024-01-15T13:38:54;0.20;;;0.20;;
80366;SDS011;70058;42.660;23.366;2024-01-15T13:41:20;0.30;;;0.30;;
80366;SDS011;70058;42.660;23.366;2024-01-15T13:43:53;0.20;;;0.20;;
80366;SDS011;70058;42.660;23.366;2024-01-15T13:46:19;0.30;;;0.30;;
80366;SDS011;70058;42.660;23.366;2024-01-15T13:48:49;0.20;;;0.20;;
80366;SDS011;70058;42.660;23.366;2024-01-15T13:51:15;0.20;;;0.20;;
80366;SDS011;70058;42.660;23.366;2024-01-15T13:53:41;0.30;;;0.30;;
80366;SDS011;70058;42.660;23.366;2024-01-15T13:56:07;0.30;;;0.30;;
80366;SDS011;70058;42.660;23.366;2024-01-15T13:58:34;0.20;;;0.20;;
80366;SDS011;70058;42.660;23.366;2024-01-15T14:01:00;0.22;;;0.22;;
80366;SDS011;70058;42.660;23.366;2024-01-15T14:03:26;0.20;;;0.20;;
80366;SDS011;70058;42.660;23.366;2024-01-15T14:05:52;0.20;;;0.20;;
80366;SDS011;70058;42.660;23.366;2024-01-15T14:08:17;0.20;;;0.20;;
80366;SDS011;70058;42.660;23.366;2024-01-15T14:10:45;0.20;;;0.20;;
80366;SDS011;70058;42.660;23.366;2024-01-15T14:13:11;0.20;;;0.20;;
80366;SDS011;70058;42.660;23.366;2024-01-15T14:15:37;0.22;;;0.22;;
80366;SDS011;70058;42.660;23.366;2024-01-15T14:18:03;0.20;;;0.20;;
80366;SDS011;70058;42.660;23.366;2024-01-15T14:20:29;0.22;;;0.22;;
80366;SDS011;70058;42.660;23.366;2024-01-15T14:22:54;0.30;;;0.30;;
80366;SDS011;70058;42.660;23.366;2024-01-15T14:25:20;0.20;;;0.20;;
80366;SDS011;70058;42.660;23.366;2024-01-15T14:27:46;0.20;;;0.20;;
80366;SDS011;70058;42.660;23.366;2024-01-15T14:30:12;0.20;;;0.20;;
80366;SDS011;70058;42.660;23.366;2024-01-15T14:32:39;0.30;;;0.30;;
80366;SDS011;70058;42.660;23.366;2024-01-15T14:35:06;0.30;;;0.30;;
80366;SDS011;70058;42.660;23.366;2024-01-15T14:37:35;0.30;;;0.30;;